createdAt,value
2022-08-10T00:03:38.052Z,21.02
2022-08-10T00:08:39.829Z,20.91
2022-08-10T00:13:41.378Z,20.81
2022-08-10T00:18:43.877Z,20.75
2022-08-10T00:23:45.348Z,20.69
2022-08-10T00:28:46.812Z,20.66
2022-08-10T00:33:48.258Z,20.62
2022-08-10T00:38:49.735Z,20.64
2022-08-10T00:43:51.227Z,20.68
2022-08-10T00:49:00.666Z,20.77
2022-08-10T00:54:02.487Z,20.80
2022-08-10T00:59:04.013Z,20.78
2022-08-10T01:04:40.183Z,20.68
2022-08-10T01:09:56.987Z,20.59
2022-08-10T01:15:03.463Z,20.52
2022-08-10T01:20:47.596Z,20.54
2022-08-10T01:26:30.762Z,20.58
2022-08-10T01:31:40.410Z,20.47
2022-08-10T01:36:47.843Z,20.37
2022-08-10T01:41:54.218Z,20.29
2022-08-10T01:47:22.620Z,20.22
2022-08-10T01:52:26.874Z,20.13
2022-08-10T01:57:32.226Z,20.05
2022-08-10T02:02:36.461Z,20.00
2022-08-10T02:07:42.005Z,19.93
2022-08-10T02:12:45.595Z,19.88
2022-08-10T02:18:00.500Z,19.82
2022-08-10T02:23:08.731Z,19.76
2022-08-10T02:28:29.954Z,19.74
2022-08-10T02:33:37.153Z,19.68
2022-08-10T02:38:58.250Z,19.65
2022-08-10T02:45:21.103Z,19.64
2022-08-10T02:50:08.329Z,19.62
2022-08-10T02:55:46.280Z,19.58
2022-08-10T03:00:51.848Z,19.51
2022-08-10T03:06:01.366Z,19.44
2022-08-10T03:11:06.625Z,19.40
2022-08-10T03:16:09.831Z,19.34
2022-08-10T03:21:13.231Z,19.28
2022-08-10T03:26:20.325Z,19.23
2022-08-10T03:31:22.537Z,19.21
2022-08-10T03:36:42.778Z,19.16
2022-08-10T03:41:54.189Z,19.11
2022-08-10T03:47:00.761Z,19.07
2022-08-10T03:52:03.016Z,19.03
2022-08-10T03:57:04.990Z,19.07
2022-08-10T04:02:43.349Z,19.11
2022-08-10T04:07:28.979Z,19.13
2022-08-10T04:12:30.488Z,19.14
2022-08-10T04:18:04.578Z,19.17
2022-08-10T04:22:56.971Z,19.22
2022-08-10T04:28:03.369Z,19.26
2022-08-10T04:33:08.042Z,19.37
2022-08-10T04:38:11.037Z,19.83
2022-08-10T04:43:13.678Z,20.58
2022-08-10T04:48:42.717Z,21.74
2022-08-10T04:54:04.826Z,23.20
2022-08-10T04:59:00.562Z,24.52
2022-08-10T05:04:36.731Z,25.79
2022-08-10T05:09:23.819Z,27.12
2022-08-10T05:14:25.500Z,28.23
2022-08-10T05:20:03.278Z,28.79
2022-08-10T05:24:48.658Z,29.83
2022-08-10T05:30:02.129Z,30.48
2022-08-10T05:35:05.748Z,31.07
2022-08-10T05:40:08.749Z,32.44
2022-08-10T05:45:20.332Z,32.91
2022-08-10T05:50:26.078Z,33.74
2022-08-10T05:55:30.118Z,34.20
2022-08-10T06:00:40.609Z,34.32
2022-08-10T06:05:45.413Z,34.77
2022-08-10T06:12:21.727Z,34.78
2022-08-10T06:16:12.085Z,34.51
2022-08-10T06:21:14.506Z,34.75
2022-08-10T06:26:20.982Z,34.81
2022-08-10T06:31:26.194Z,34.90
2022-08-10T06:36:34.095Z,35.01
2022-08-10T06:42:15.015Z,35.17
2022-08-10T06:47:06.038Z,35.42
2022-08-10T06:52:16.337Z,35.62
2022-08-10T06:57:24.852Z,35.39
2022-08-10T07:02:31.106Z,35.52
2022-08-10T07:07:39.900Z,36.01
2022-08-10T07:12:42.383Z,36.66
2022-08-10T07:17:46.340Z,35.36
2022-08-10T07:23:01.737Z,34.90
2022-08-10T07:28:13.966Z,35.31
2022-08-10T07:33:18.352Z,36.55
2022-08-10T07:38:24.526Z,37.04
2022-08-10T07:43:32.165Z,37.00
2022-08-10T07:48:39.590Z,37.17
2022-08-10T07:53:47.021Z,36.47
2022-08-10T07:58:52.444Z,37.33
2022-08-10T08:04:05.801Z,37.35
2022-08-10T08:09:13.504Z,36.39
2022-08-10T08:14:16.173Z,37.55
2022-08-10T08:19:32.825Z,38.60
2022-08-10T08:24:39.090Z,39.10
2022-08-10T08:29:43.869Z,39.36
2022-08-10T08:34:47.356Z,39.51
2022-08-10T08:39:49.043Z,38.60
2022-08-10T08:45:06.892Z,39.28
2022-08-10T08:50:16.245Z,39.28
2022-08-10T08:56:04.768Z,37.78
2022-08-10T09:01:40.239Z,36.57
2022-08-10T09:07:07.289Z,37.06
2022-08-10T09:12:43.960Z,37.87
2022-08-10T09:18:03.507Z,37.45
2022-08-10T09:23:19.127Z,38.00
2022-08-10T09:28:27.540Z,36.24
2022-08-10T09:36:23.359Z,36.41
2022-08-10T09:40:50.121Z,35.13
2022-08-10T09:45:13.429Z,33.40
2022-08-10T09:50:43.020Z,32.80
2022-08-10T09:56:26.772Z,33.73
2022-08-10T10:02:00.308Z,33.04
2022-08-10T10:07:06.813Z,33.10
2022-08-10T10:12:32.012Z,32.59
2022-08-10T10:18:02.790Z,31.73
2022-08-10T10:23:13.806Z,31.21
2022-08-10T10:29:07.017Z,31.26
2022-08-10T10:34:10.081Z,31.41
2022-08-10T10:39:23.765Z,31.21
2022-08-10T10:44:56.693Z,31.12
2022-08-10T10:50:06.381Z,31.45
2022-08-10T10:55:30.467Z,31.72
2022-08-10T11:00:44.944Z,31.31
2022-08-10T11:05:55.479Z,30.98
2022-08-10T11:12:00.195Z,31.47
2022-08-10T11:17:00.083Z,31.46
2022-08-10T11:22:43.528Z,30.85
2022-08-10T11:28:08.433Z,30.68
2022-08-10T11:33:32.404Z,30.98
2022-08-10T11:39:13.907Z,31.07
2022-08-10T11:44:37.683Z,31.17
2022-08-10T11:50:01.897Z,31.21
2022-08-10T11:55:13.418Z,31.14
2022-08-10T12:00:18.063Z,30.61
2022-08-10T12:05:55.006Z,30.44
2022-08-10T12:10:57.710Z,30.23
2022-08-10T12:16:09.642Z,30.47
2022-08-10T12:21:21.543Z,30.90
2022-08-10T12:26:50.059Z,30.31
2022-08-10T12:32:05.628Z,30.44
2022-08-10T12:37:22.855Z,30.70
2022-08-10T12:42:39.015Z,30.66
2022-08-10T12:47:57.689Z,30.83
2022-08-10T12:53:33.037Z,30.68
2022-08-10T12:58:57.772Z,30.59
2022-08-10T13:04:22.303Z,30.24
2022-08-10T13:09:26.220Z,30.28
2022-08-10T13:14:32.749Z,30.42
2022-08-10T13:19:55.362Z,30.60
2022-08-10T13:25:03.755Z,30.70
2022-08-10T13:30:10.262Z,30.43
2022-08-10T13:35:17.676Z,30.25
2022-08-10T13:40:20.960Z,30.21
2022-08-10T13:45:25.758Z,30.20
2022-08-10T13:50:33.589Z,30.33
2022-08-10T13:55:53.441Z,30.31
2022-08-10T14:00:58.289Z,30.30
2022-08-10T14:06:01.656Z,30.68
2022-08-10T14:11:11.582Z,30.75
2022-08-10T14:16:15.663Z,30.97
2022-08-10T14:21:17.565Z,30.98
2022-08-10T14:26:22.601Z,30.80
2022-08-10T14:31:33.704Z,31.02
2022-08-10T14:36:54.621Z,31.08
2022-08-10T14:42:01.407Z,31.05
2022-08-10T14:47:52.275Z,30.94
2022-08-10T14:52:39.821Z,30.81
2022-08-10T14:58:19.466Z,30.72
2022-08-10T15:03:36.540Z,30.51
2022-08-10T15:08:37.020Z,30.49
2022-08-10T15:13:44.957Z,30.68
2022-08-10T15:20:01.315Z,30.91
2022-08-10T15:24:52.765Z,30.94
2022-08-10T15:29:58.253Z,31.01
2022-08-10T15:35:27.583Z,30.74
2022-08-10T15:40:42.568Z,30.77
2022-08-10T15:46:08.102Z,30.73
2022-08-10T15:51:53.742Z,30.84
2022-08-10T15:57:00.941Z,30.78
2022-08-10T16:02:16.729Z,30.82
2022-08-10T16:07:46.050Z,30.76
2022-08-10T16:12:59.239Z,30.74
2022-08-10T16:18:17.257Z,30.78
2022-08-10T16:23:40.873Z,30.65
2022-08-10T16:28:57.869Z,30.54
2022-08-10T16:34:01.765Z,30.43
2022-08-10T16:39:04.309Z,30.45
2022-08-10T16:44:09.759Z,30.43
2022-08-10T16:49:15.003Z,30.38
2022-08-10T16:54:26.326Z,30.39
2022-08-10T16:59:33.986Z,30.27
2022-08-10T17:04:36.444Z,30.26
2022-08-10T17:09:39.704Z,30.17
2022-08-10T17:14:43.352Z,30.07
2022-08-10T17:19:45.985Z,29.96
2022-08-10T17:24:56.353Z,29.94
2022-08-10T17:30:03.902Z,29.90
2022-08-10T17:35:09.945Z,29.81
2022-08-10T17:40:16.877Z,29.73
2022-08-10T17:45:48.528Z,29.63
2022-08-10T17:50:51.471Z,29.52
2022-08-10T17:55:59.032Z,29.43
2022-08-10T18:01:38.930Z,29.32
2022-08-10T18:06:25.136Z,29.22
2022-08-10T18:11:32.224Z,29.11
2022-08-10T18:16:34.742Z,28.99
2022-08-10T18:21:42.668Z,28.86
2022-08-10T18:26:47.748Z,28.71
2022-08-10T18:31:56.453Z,28.55
2022-08-10T18:36:58.726Z,28.41
2022-08-10T18:42:09.829Z,28.21
2022-08-10T18:47:16.649Z,28.08
2022-08-10T18:52:23.214Z,27.93
2022-08-10T18:57:41.209Z,27.69
2022-08-10T19:03:20.228Z,27.43
2022-08-10T19:08:32.721Z,27.20
2022-08-10T19:13:58.610Z,27.05
2022-08-10T19:19:36.489Z,26.91
2022-08-10T19:24:58.021Z,26.76
2022-08-10T19:30:14.343Z,26.58
2022-08-10T19:36:03.329Z,26.31
2022-08-10T19:41:15.000Z,26.01
2022-08-10T19:46:34.391Z,25.80
2022-08-10T19:52:10.113Z,25.63
2022-08-10T19:57:24.160Z,25.54
2022-08-10T20:02:40.264Z,25.43
2022-08-10T20:08:01.250Z,25.28
2022-08-10T20:13:25.724Z,25.16
2022-08-10T20:18:35.355Z,24.96
2022-08-10T20:23:58.383Z,24.75
2022-08-10T20:29:23.214Z,24.52
2022-08-10T20:34:47.617Z,24.20
2022-08-10T20:40:04.245Z,23.95
2022-08-10T20:45:21.867Z,23.75
2022-08-10T20:50:35.955Z,23.54
2022-08-10T20:55:57.707Z,23.40
2022-08-10T21:01:06.241Z,23.35
2022-08-10T21:06:41.700Z,23.34
2022-08-10T21:12:03.027Z,23.20
2022-08-10T21:17:34.809Z,23.12
2022-08-10T21:22:43.193Z,23.09
2022-08-10T21:28:09.094Z,22.98
2022-08-10T21:33:32.891Z,22.83
2022-08-10T21:38:52.387Z,22.73
2022-08-10T21:44:28.476Z,22.66
2022-08-10T21:50:15.716Z,22.58
2022-08-10T21:55:58.419Z,22.45
2022-08-10T22:01:39.509Z,22.37
2022-08-10T22:07:02.669Z,22.23
2022-08-10T22:12:31.808Z,22.12
2022-08-10T22:18:10.694Z,21.97
2022-08-10T22:23:40.522Z,21.87
2022-08-10T22:29:07.270Z,21.77
2022-08-10T22:35:03.946Z,21.62
2022-08-10T22:40:30.692Z,21.43
2022-08-10T22:45:52.348Z,21.29
2022-08-10T22:51:00.650Z,21.21
2022-08-10T22:56:20.782Z,21.16
2022-08-10T23:02:08.683Z,21.16
2022-08-10T23:07:16.070Z,21.16
2022-08-10T23:12:23.491Z,21.12
2022-08-10T23:18:01.090Z,21.05
2022-08-10T23:23:09.694Z,20.96
2022-08-10T23:28:14.205Z,20.87
2022-08-10T23:33:37.505Z,20.78
2022-08-10T23:38:41.416Z,20.75
2022-08-10T23:44:03.234Z,20.73
2022-08-10T23:49:07.706Z,20.65
2022-08-10T23:54:15.163Z,20.54
2022-08-10T23:59:20.159Z,20.37
